sensor_id;sensor_type;location;lat;lon;timestamp;pressure;altitude;pressure_sealevel;temperature;humidity
44001;BME280;29660;42.892;24.710;2022-08-14T00:04:10;96225.25;;;17.89;100.00
44001;BME280;29660;42.892;24.710;2022-08-14T00:09:32;96431.16;;;19.15;100.00
44001;BME280;29660;42.892;24.710;2022-08-14T00:14:35;96100.78;;;17.01;100.00
44001;BME280;29660;42.892;24.710;2022-08-14T00:19:37;96297.00;;;18.10;100.00
44001;BME280;29660;42.892;24.710;2022-08-14T00:24:39;96008.50;;;16.22;100.00
44001;BME280;29660;42.892;24.710;2022-08-14T00:29:41;96411.09;;;18.97;100.00
44001;BME280;29660;42.892;24.710;2022-08-14T00:34:44;96398.72;;;18.76;100.00
44001;BME280;29660;42.892;24.710;2022-08-14T00:39:47;96222.59;;;17.58;100.00
44001;BME280;29660;42.892;24.710;2022-08-14T00:44:50;96173.69;;;17.24;100.00
44001;BME280;29660;42.892;24.710;2022-08-14T00:49:53;96324.31;;;18.24;100.00
44001;BME280;29660;42.892;24.710;2022-08-14T00:54:57;96157.59;;;17.28;100.00
44001;BME280;29660;42.892;24.710;2022-08-14T01:00:00;96302.34;;;18.26;100.00
44001;BME280;29660;42.892;24.710;2022-08-14T01:05:03;96372.56;;;18.80;100.00
44001;BME280;29660;42.892;24.710;2022-08-14T01:10:08;96319.63;;;18.40;100.00
44001;BME280;29660;42.892;24.710;2022-08-14T01:15:11;96326.59;;;18.42;100.00
44001;BME280;29660;42.892;24.710;2022-08-14T01:20:15;96188.16;;;17.51;100.00
44001;BME280;29660;42.892;24.710;2022-08-14T01:25:37;96300.09;;;18.28;100.00
44001;BME280;29660;42.892;24.710;2022-08-14T01:30:39;96361.00;;;18.64;100.00
44001;BME280;29660;42.892;24.710;2022-08-14T01:35:41;96264.66;;;17.94;100.00
44001;BME280;29660;42.892;24.710;2022-08-14T01:41:10;96374.16;;;18.65;100.00
44001;BME280;29660;42.892;24.710;2022-08-14T01:46:17;96120.75;;;17.16;100.00
44001;BME280;29660;42.892;24.710;2022-08-14T01:51:26;96137.97;;;17.27;100.00
44001;BME280;29660;42.892;24.710;2022-08-14T01:56:31;96159.84;;;17.41;100.00
44001;BME280;29660;42.892;24.710;2022-08-14T02:01:41;96151.44;;;17.27;100.00
44001;BME280;29660;42.892;24.710;2022-08-14T02:06:52;96083.63;;;16.90;100.00
44001;BME280;29660;42.892;24.710;2022-08-14T02:11:54;96290.00;;;18.25;100.00
44001;BME280;29660;42.892;24.710;2022-08-14T02:16:57;96342.41;;;18.59;100.00
44001;BME280;29660;42.892;24.710;2022-08-14T02:22:00;96288.06;;;18.25;100.00
44001;BME280;29660;42.892;24.710;2022-08-14T02:27:04;96125.63;;;17.26;100.00
44001;BME280;29660;42.892;24.710;2022-08-14T02:32:26;95885.41;;;15.67;100.00
44001;BME280;29660;42.892;24.710;2022-08-14T02:37:31;95910.31;;;15.80;100.00
44001;BME280;29660;42.892;24.710;2022-08-14T02:42:38;96330.50;;;18.44;100.00
44001;BME280;29660;42.892;24.710;2022-08-14T02:47:40;96313.38;;;18.36;100.00
44001;BME280;29660;42.892;24.710;2022-08-14T02:52:42;96122.69;;;17.15;100.00
44001;BME280;29660;42.892;24.710;2022-08-14T02:57:58;96102.47;;;17.06;100.00
44001;BME280;29660;42.892;24.710;2022-08-14T03:03:04;96123.38;;;17.12;100.00
44001;BME280;29660;42.892;24.710;2022-08-14T03:08:11;96191.44;;;17.76;100.00
44001;BME280;29660;42.892;24.710;2022-08-14T03:13:17;96279.13;;;18.40;100.00
44001;BME280;29660;42.892;24.710;2022-08-14T03:18:23;96292.72;;;18.44;100.00
44001;BME280;29660;42.892;24.710;2022-08-14T03:23:33;96279.53;;;18.43;100.00
44001;BME280;29660;42.892;24.710;2022-08-14T03:28:38;96338.25;;;18.65;100.00
44001;BME280;29660;42.892;24.710;2022-08-14T03:33:43;96200.44;;;17.84;100.00
44001;BME280;29660;42.892;24.710;2022-08-14T03:38:47;96093.97;;;17.23;100.00
44001;BME280;29660;42.892;24.710;2022-08-14T03:44:10;96078.78;;;17.15;100.00
44001;BME280;29660;42.892;24.710;2022-08-14T03:49:32;96115.41;;;17.35;100.00
44001;BME280;29660;42.892;24.710;2022-08-14T03:54:34;96260.94;;;18.37;100.00
44001;BME280;29660;42.892;24.710;2022-08-14T03:59:37;96079.06;;;17.10;100.00
44001;BME280;29660;42.892;24.710;2022-08-14T04:04:39;96148.00;;;17.46;100.00
44001;BME280;29660;42.892;24.710;2022-08-14T04:09:41;96078.38;;;16.97;100.00
44001;BME280;29660;42.892;24.710;2022-08-14T04:14:43;96124.47;;;17.27;100.00
44001;BME280;29660;42.892;24.710;2022-08-14T04:19:45;96159.09;;;17.25;100.00
44001;BME280;29660;42.892;24.710;2022-08-14T04:24:48;96152.56;;;17.26;100.00
44001;BME280;29660;42.892;24.710;2022-08-14T04:29:50;96317.06;;;18.28;100.00
44001;BME280;29660;42.892;24.710;2022-08-14T04:34:53;96289.91;;;18.21;100.00
44001;BME280;29660;42.892;24.710;2022-08-14T04:39:55;96122.75;;;17.19;100.00
44001;BME280;29660;42.892;24.710;2022-08-14T04:45:16;96263.34;;;18.04;100.00
44001;BME280;29660;42.892;24.710;2022-08-14T04:50:18;96106.72;;;16.91;100.00
44001;BME280;29660;42.892;24.710;2022-08-14T04:55:25;96102.53;;;16.93;100.00
44001;BME280;29660;42.892;24.710;2022-08-14T05:00:28;96322.66;;;18.39;100.00
44001;BME280;29660;42.892;24.710;2022-08-14T05:05:31;96364.09;;;18.47;100.00
44001;BME280;29660;42.892;24.710;2022-08-14T05:10:35;96117.41;;;16.87;100.00
44001;BME280;29660;42.892;24.710;2022-08-14T05:15:40;96343.72;;;18.49;100.00
44001;BME280;29660;42.892;24.710;2022-08-14T05:20:48;96110.63;;;16.93;100.00
44001;BME280;29660;42.892;24.710;2022-08-14T05:26:06;96161.06;;;17.28;100.00
44001;BME280;29660;42.892;24.710;2022-08-14T05:31:15;96120.19;;;17.07;100.00
44001;BME280;29660;42.892;24.710;2022-08-14T05:36:21;96123.97;;;17.22;100.00
44001;BME280;29660;42.892;24.710;2022-08-14T05:41:25;96349.34;;;18.60;100.00
44001;BME280;29660;42.892;24.710;2022-08-14T05:46:28;96275.19;;;18.19;100.00
44001;BME280;29660;42.892;24.710;2022-08-14T05:51:30;96351.72;;;18.81;100.00
44001;BME280;29660;42.892;24.710;2022-08-14T05:56:32;96106.50;;;17.15;100.00
44001;BME280;29660;42.892;24.710;2022-08-14T06:01:37;96111.16;;;17.34;100.00
44001;BME280;29660;42.892;24.710;2022-08-14T06:06:41;96257.84;;;18.35;100.00
44001;BME280;29660;42.892;24.710;2022-08-14T06:11:43;96338.84;;;18.94;100.00
44001;BME280;29660;42.892;24.710;2022-08-14T06:16:45;96141.94;;;17.69;100.00
44001;BME280;29660;42.892;24.710;2022-08-14T06:21:48;96322.06;;;19.04;100.00
44001;BME280;29660;42.892;24.710;2022-08-14T06:26:53;96324.75;;;19.23;100.00
44001;BME280;29660;42.892;24.710;2022-08-14T06:31:57;96185.75;;;18.59;100.00
44001;BME280;29660;42.892;24.710;2022-08-14T06:37:00;96304.31;;;19.26;100.00
44001;BME280;29660;42.892;24.710;2022-08-14T06:42:03;96152.13;;;18.33;100.00
44001;BME280;29660;42.892;24.710;2022-08-14T06:47:05;95941.69;;;17.10;100.00
44001;BME280;29660;42.892;24.710;2022-08-14T06:52:07;96341.72;;;19.66;100.00
44001;BME280;29660;42.892;24.710;2022-08-14T06:57:10;96157.03;;;18.51;100.00
44001;BME280;29660;42.892;24.710;2022-08-14T07:02:12;96113.47;;;18.29;100.00
44001;BME280;29660;42.892;24.710;2022-08-14T07:07:39;96118.88;;;18.29;100.00
44001;BME280;29660;42.892;24.710;2022-08-14T07:12:42;96315.69;;;19.58;100.00
44001;BME280;29660;42.892;24.710;2022-08-14T07:17:55;96147.56;;;18.37;100.00
44001;BME280;29660;42.892;24.710;2022-08-14T07:23:02;96112.63;;;18.25;100.00
44001;BME280;29660;42.892;24.710;2022-08-14T07:33:13;96369.19;;;19.91;100.00
44001;BME280;29660;42.892;24.710;2022-08-14T07:38:17;96390.28;;;20.05;100.00
44001;BME280;29660;42.892;24.710;2022-08-14T07:43:21;96334.00;;;19.91;100.00
44001;BME280;29660;42.892;24.710;2022-08-14T07:48:24;95971.16;;;17.61;100.00
44001;BME280;29660;42.892;24.710;2022-08-14T07:53:26;96350.63;;;20.16;100.00
44001;BME280;29660;42.892;24.710;2022-08-14T07:58:28;96381.78;;;20.56;100.00
44001;BME280;29660;42.892;24.710;2022-08-14T08:03:37;96149.69;;;19.17;100.00
44001;BME280;29660;42.892;24.710;2022-08-14T08:08:42;96350.69;;;20.76;100.00
44001;BME280;29660;42.892;24.710;2022-08-14T08:13:44;96270.25;;;20.24;100.00
44001;BME280;29660;42.892;24.710;2022-08-14T08:18:49;96384.03;;;21.11;100.00
44001;BME280;29660;42.892;24.710;2022-08-14T08:23:53;96398.13;;;21.27;100.00
44001;BME280;29660;42.892;24.710;2022-08-14T08:28:57;96348.78;;;21.14;100.00
44001;BME280;29660;42.892;24.710;2022-08-14T08:34:03;96250.50;;;20.50;100.00
44001;BME280;29660;42.892;24.710;2022-08-14T08:39:05;96342.88;;;21.39;100.00
44001;BME280;29660;42.892;24.710;2022-08-14T08:44:19;96384.34;;;21.80;100.00
44001;BME280;29660;42.892;24.710;2022-08-14T08:49:41;96394.53;;;21.90;93.94
44001;BME280;29660;42.892;24.710;2022-08-14T08:54:53;96287.00;;;21.78;94.34
44001;BME280;29660;42.892;24.710;2022-08-14T08:59:55;96375.63;;;22.56;92.85
44001;BME280;29660;42.892;24.710;2022-08-14T09:05:03;96344.50;;;22.50;91.28
44001;BME280;29660;42.892;24.710;2022-08-14T09:10:05;96373.28;;;22.58;89.29
44001;BME280;29660;42.892;24.710;2022-08-14T09:15:08;96190.28;;;21.52;90.62
44001;BME280;29660;42.892;24.710;2022-08-14T09:20:13;96311.53;;;22.48;92.32
44001;BME280;29660;42.892;24.710;2022-08-14T09:25:20;96334.84;;;22.56;89.36
44001;BME280;29660;42.892;24.710;2022-08-14T09:30:48;96232.66;;;21.68;90.58
44001;BME280;29660;42.892;24.710;2022-08-14T09:41:41;96375.59;;;22.01;96.51
44001;BME280;29660;42.892;24.710;2022-08-14T09:47:08;95997.66;;;19.23;96.94
44001;BME280;29660;42.892;24.710;2022-08-14T09:52:15;96366.06;;;21.32;98.91
44001;BME280;29660;42.892;24.710;2022-08-14T09:57:29;96338.13;;;20.95;100.00
44001;BME280;29660;42.892;24.710;2022-08-14T10:02:32;96400.84;;;21.27;100.00
44001;BME280;29660;42.892;24.710;2022-08-14T10:07:48;96404.91;;;21.10;100.00
44001;BME280;29660;42.892;24.710;2022-08-14T10:12:54;96078.88;;;18.81;100.00
44001;BME280;29660;42.892;24.710;2022-08-14T10:18:05;96148.47;;;18.87;100.00
44001;BME280;29660;42.892;24.710;2022-08-14T10:23:20;96140.75;;;18.89;100.00
44001;BME280;29660;42.892;24.710;2022-08-14T10:28:23;96324.78;;;20.22;100.00
44001;BME280;29660;42.892;24.710;2022-08-14T10:33:40;96059.81;;;18.47;100.00
44001;BME280;29660;42.892;24.710;2022-08-14T10:38:42;96150.56;;;19.24;100.00
44001;BME280;29660;42.892;24.710;2022-08-14T10:44:03;96297.53;;;20.38;100.00
44001;BME280;29660;42.892;24.710;2022-08-14T10:49:05;96100.09;;;19.05;100.00
44001;BME280;29660;42.892;24.710;2022-08-14T10:54:09;96317.75;;;20.44;100.00
44001;BME280;29660;42.892;24.710;2022-08-14T10:59:18;96304.06;;;20.33;100.00
44001;BME280;29660;42.892;24.710;2022-08-14T11:04:23;96250.59;;;19.97;100.00
44001;BME280;29660;42.892;24.710;2022-08-14T11:09:28;96091.66;;;19.07;100.00
44001;BME280;29660;42.892;24.710;2022-08-14T11:14:32;96274.50;;;20.21;100.00
44001;BME280;29660;42.892;24.710;2022-08-14T11:19:35;96189.50;;;19.43;100.00
44001;BME280;29660;42.892;24.710;2022-08-14T11:24:40;96117.84;;;19.03;100.00
44001;BME280;29660;42.892;24.710;2022-08-14T11:29:52;96084.09;;;18.93;100.00
44001;BME280;29660;42.892;24.710;2022-08-14T11:35:02;96087.28;;;18.99;100.00
44001;BME280;29660;42.892;24.710;2022-08-14T11:40:14;96244.72;;;20.21;100.00
44001;BME280;29660;42.892;24.710;2022-08-14T11:45:16;96128.06;;;19.43;100.00
44001;BME280;29660;42.892;24.710;2022-08-14T11:50:21;96118.34;;;19.38;100.00
44001;BME280;29660;42.892;24.710;2022-08-14T11:55:26;96253.34;;;20.61;100.00
44001;BME280;29660;42.892;24.710;2022-08-14T12:26:53;96076.56;;;19.93;98.80
44001;BME280;29660;42.892;24.710;2022-08-14T12:32:00;96058.97;;;19.76;94.06
44001;BME280;29660;42.892;24.710;2022-08-14T12:37:06;96296.97;;;21.23;93.23
44001;BME280;29660;42.892;24.710;2022-08-14T12:42:10;96147.97;;;20.18;92.49
44001;BME280;29660;42.892;24.710;2022-08-14T12:47:14;96265.75;;;20.99;92.48
44001;BME280;29660;42.892;24.710;2022-08-14T12:52:32;96072.28;;;19.92;91.66
44001;BME280;29660;42.892;24.710;2022-08-14T12:57:40;96315.06;;;21.97;89.29
44001;BME280;29660;42.892;24.710;2022-08-14T13:02:49;96106.81;;;20.76;88.20
44001;BME280;29660;42.892;24.710;2022-08-14T13:07:57;95941.81;;;19.72;87.61
44001;BME280;29660;42.892;24.710;2022-08-14T13:13:00;96123.63;;;20.96;85.76
44001;BME280;29660;42.892;24.710;2022-08-14T13:18:15;96130.22;;;20.99;88.46
44001;BME280;29660;42.892;24.710;2022-08-14T13:23:18;96161.53;;;21.41;86.30
44001;BME280;29660;42.892;24.710;2022-08-14T13:28:20;96348.03;;;22.54;87.72
44001;BME280;29660;42.892;24.710;2022-08-14T13:33:33;96355.34;;;22.43;86.87
44001;BME280;29660;42.892;24.710;2022-08-14T13:38:36;96148.91;;;21.11;88.16
44001;BME280;29660;42.892;24.710;2022-08-14T13:43:39;96309.34;;;22.13;89.06
44001;BME280;29660;42.892;24.710;2022-08-14T13:48:50;96333.13;;;22.26;87.74
44001;BME280;29660;42.892;24.710;2022-08-14T13:53:55;96128.97;;;20.89;86.35
44001;BME280;29660;42.892;24.710;2022-08-14T13:59:09;96322.63;;;22.21;88.49
44001;BME280;29660;42.892;24.710;2022-08-14T14:04:16;96293.44;;;22.11;85.40
44001;BME280;29660;42.892;24.710;2022-08-14T14:09:29;96130.22;;;20.99;85.20
44001;BME280;29660;42.892;24.710;2022-08-14T14:14:35;96121.22;;;20.88;86.47
44001;BME280;29660;42.892;24.710;2022-08-14T14:19:46;96111.44;;;20.76;87.57
44001;BME280;29660;42.892;24.710;2022-08-14T14:24:48;96340.41;;;22.15;88.61
44001;BME280;29660;42.892;24.710;2022-08-14T14:29:50;96316.19;;;21.92;88.25
44001;BME280;29660;42.892;24.710;2022-08-14T14:35:00;96138.09;;;20.70;89.48
44001;BME280;29660;42.892;24.710;2022-08-14T14:40:03;96088.16;;;20.30;90.96
44001;BME280;29660;42.892;24.710;2022-08-14T14:45:27;96130.59;;;20.53;92.54
44001;BME280;29660;42.892;24.710;2022-08-14T14:50:30;96129.81;;;20.52;93.42
44001;BME280;29660;42.892;24.710;2022-08-14T14:55:33;96153.53;;;20.66;93.18
44001;BME280;29660;42.892;24.710;2022-08-14T15:00:44;96312.53;;;21.70;93.96
44001;BME280;29660;42.892;24.710;2022-08-14T15:05:48;96260.69;;;21.35;94.20
44001;BME280;29660;42.892;24.710;2022-08-14T15:10:53;96079.09;;;20.16;93.96
44001;BME280;29660;42.892;24.710;2022-08-14T15:15:55;96297.28;;;21.55;92.81
44001;BME280;29660;42.892;24.710;2022-08-14T15:20:57;96099.44;;;20.36;93.26
44001;BME280;29660;42.892;24.710;2022-08-14T15:26:01;96298.81;;;21.52;95.88
44001;BME280;29660;42.892;24.710;2022-08-14T15:31:03;96068.28;;;20.16;93.05
44001;BME280;29660;42.892;24.710;2022-08-14T15:36:06;96263.66;;;21.22;95.87
44001;BME280;29660;42.892;24.710;2022-08-14T15:41:17;96245.56;;;20.93;94.26
44001;BME280;29660;42.892;24.710;2022-08-14T15:46:19;96070.94;;;19.75;94.57
44001;BME280;29660;42.892;24.710;2022-08-14T15:51:26;96224.31;;;20.61;97.21
44001;BME280;29660;42.892;24.710;2022-08-14T15:56:32;96123.00;;;19.98;96.33
44001;BME280;29660;42.892;24.710;2022-08-14T16:01:38;96123.81;;;20.02;97.26
44001;BME280;29660;42.892;24.710;2022-08-14T16:06:54;96316.31;;;21.21;100.00
44001;BME280;29660;42.892;24.710;2022-08-14T16:11:56;96295.25;;;21.04;100.00
44001;BME280;29660;42.892;24.710;2022-08-14T16:23:34;96305.19;;;20.93;100.00
44001;BME280;29660;42.892;24.710;2022-08-14T16:28:38;96261.47;;;20.61;100.00
44001;BME280;29660;42.892;24.710;2022-08-14T16:33:40;96088.19;;;19.36;100.00
44001;BME280;29660;42.892;24.710;2022-08-14T16:38:59;96078.03;;;19.26;100.00
44001;BME280;29660;42.892;24.710;2022-08-14T16:44:09;96279.31;;;20.65;100.00
44001;BME280;29660;42.892;24.710;2022-08-14T16:49:15;96265.78;;;20.65;100.00
44001;BME280;29660;42.892;24.710;2022-08-14T16:54:18;96208.38;;;20.22;100.00
44001;BME280;29660;42.892;24.710;2022-08-14T16:59:22;96224.28;;;20.27;100.00
44001;BME280;29660;42.892;24.710;2022-08-14T17:04:31;95983.22;;;18.59;100.00
44001;BME280;29660;42.892;24.710;2022-08-14T17:09:43;96020.94;;;18.78;100.00
44001;BME280;29660;42.892;24.710;2022-08-14T17:14:56;96231.66;;;20.30;100.00
44001;BME280;29660;42.892;24.710;2022-08-14T17:20:00;96160.94;;;19.72;100.00
44001;BME280;29660;42.892;24.710;2022-08-14T17:25:03;96222.03;;;20.03;100.00
44001;BME280;29660;42.892;24.710;2022-08-14T17:30:06;96159.53;;;19.55;100.00
44001;BME280;29660;42.892;24.710;2022-08-14T17:35:11;96006.47;;;18.40;100.00
44001;BME280;29660;42.892;24.710;2022-08-14T17:40:19;96216.19;;;19.71;100.00
44001;BME280;29660;42.892;24.710;2022-08-14T17:50:45;96265.56;;;19.64;100.00
44001;BME280;29660;42.892;24.710;2022-08-14T17:56:01;96204.88;;;19.38;100.00
44001;BME280;29660;42.892;24.710;2022-08-14T18:01:04;96239.13;;;19.54;100.00
44001;BME280;29660;42.892;24.710;2022-08-14T18:06:07;96247.50;;;19.49;100.00
44001;BME280;29660;42.892;24.710;2022-08-14T18:11:30;96220.56;;;19.29;100.00
44001;BME280;29660;42.892;24.710;2022-08-14T18:16:46;96067.47;;;18.22;100.00
44001;BME280;29660;42.892;24.710;2022-08-14T18:21:49;96025.50;;;17.82;100.00
44001;BME280;29660;42.892;24.710;2022-08-14T18:27:05;96240.75;;;19.12;100.00
44001;BME280;29660;42.892;24.710;2022-08-14T18:37:34;96037.56;;;17.69;100.00
44001;BME280;29660;42.892;24.710;2022-08-14T18:47:38;96033.44;;;17.56;100.00
44001;BME280;29660;42.892;24.710;2022-08-14T18:53:07;96249.56;;;18.86;100.00
44001;BME280;29660;42.892;24.710;2022-08-14T18:58:12;96070.69;;;17.50;100.00
44001;BME280;29660;42.892;24.710;2022-08-14T19:08:46;95998.22;;;16.90;100.00
44001;BME280;29660;42.892;24.710;2022-08-14T19:13:48;96220.75;;;18.32;100.00
44001;BME280;29660;42.892;24.710;2022-08-14T19:18:55;96299.06;;;18.71;100.00
44001;BME280;29660;42.892;24.710;2022-08-14T19:24:13;96212.19;;;17.91;100.00
44001;BME280;29660;42.892;24.710;2022-08-14T19:29:33;96063.72;;;16.95;100.00
44001;BME280;29660;42.892;24.710;2022-08-14T19:34:44;96283.09;;;18.27;100.00
44001;BME280;29660;42.892;24.710;2022-08-14T19:39:53;96110.88;;;17.04;100.00
44001;BME280;29660;42.892;24.710;2022-08-14T19:44:56;96299.00;;;18.13;100.00
44001;BME280;29660;42.892;24.710;2022-08-14T19:49:59;96091.72;;;16.74;100.00
44001;BME280;29660;42.892;24.710;2022-08-14T19:55:14;96081.94;;;16.69;100.00
44001;BME280;29660;42.892;24.710;2022-08-14T20:00:17;96326.91;;;18.21;100.00
44001;BME280;29660;42.892;24.710;2022-08-14T20:05:21;96102.00;;;16.72;100.00
44001;BME280;29660;42.892;24.710;2022-08-14T20:15:48;96080.56;;;16.60;100.00
44001;BME280;29660;42.892;24.710;2022-08-14T20:20:50;96100.28;;;16.64;100.00
44001;BME280;29660;42.892;24.710;2022-08-14T20:25:54;95993.03;;;15.87;100.00
44001;BME280;29660;42.892;24.710;2022-08-14T20:31:12;96323.66;;;18.31;100.00
44001;BME280;29660;42.892;24.710;2022-08-14T20:36:15;96103.78;;;16.80;100.00
44001;BME280;29660;42.892;24.710;2022-08-14T20:41:26;96277.94;;;18.03;100.00
44001;BME280;29660;42.892;24.710;2022-08-14T20:46:34;96204.81;;;17.37;100.00
44001;BME280;29660;42.892;24.710;2022-08-14T20:51:42;96197.84;;;17.36;100.00
44001;BME280;29660;42.892;24.710;2022-08-14T20:56:49;96266.06;;;17.88;100.00
44001;BME280;29660;42.892;24.710;2022-08-14T21:01:55;96125.41;;;17.00;100.00
44001;BME280;29660;42.892;24.710;2022-08-14T21:07:24;96320.19;;;18.30;100.00
44001;BME280;29660;42.892;24.710;2022-08-14T21:12:37;96083.66;;;16.74;100.00
44001;BME280;29660;42.892;24.710;2022-08-14T21:17:59;96136.00;;;16.92;100.00
44001;BME280;29660;42.892;24.710;2022-08-14T21:23:05;96177.44;;;17.20;100.00
44001;BME280;29660;42.892;24.710;2022-08-14T21:28:09;96282.00;;;17.77;100.00
44001;BME280;29660;42.892;24.710;2022-08-14T21:33:31;96069.03;;;16.43;100.00
44001;BME280;29660;42.892;24.710;2022-08-14T21:38:35;96297.63;;;17.87;100.00
44001;BME280;29660;42.892;24.710;2022-08-14T21:43:38;96131.16;;;16.82;100.00
44001;BME280;29660;42.892;24.710;2022-08-14T21:48:40;96127.13;;;16.76;100.00
44001;BME280;29660;42.892;24.710;2022-08-14T21:53:45;96149.03;;;16.90;100.00
44001;BME280;29660;42.892;24.710;2022-08-14T21:59:00;96063.88;;;16.38;100.00
44001;BME280;29660;42.892;24.710;2022-08-14T22:04:05;96110.28;;;16.63;100.00
44001;BME280;29660;42.892;24.710;2022-08-14T22:09:29;96117.56;;;16.63;100.00
44001;BME280;29660;42.892;24.710;2022-08-14T22:14:34;95894.31;;;15.12;100.00
44001;BME280;29660;42.892;24.710;2022-08-14T22:19:44;96295.56;;;17.65;100.00
44001;BME280;29660;42.892;24.710;2022-08-14T22:24:55;96311.00;;;17.80;100.00
44001;BME280;29660;42.892;24.710;2022-08-14T22:30:03;96229.16;;;17.25;100.00
44001;BME280;29660;42.892;24.710;2022-08-14T22:35:07;96105.13;;;16.42;100.00
44001;BME280;29660;42.892;24.710;2022-08-14T22:40:11;96315.66;;;17.67;100.00
44001;BME280;29660;42.892;24.710;2022-08-14T22:45:19;96074.47;;;16.15;100.00
44001;BME280;29660;42.892;24.710;2022-08-14T22:50:21;96286.09;;;17.39;100.00
44001;BME280;29660;42.892;24.710;2022-08-14T22:55:32;96257.41;;;17.31;100.00
44001;BME280;29660;42.892;24.710;2022-08-14T23:00:37;96138.66;;;16.61;100.00
44001;BME280;29660;42.892;24.710;2022-08-14T23:05:40;96290.25;;;17.37;100.00
44001;BME280;29660;42.892;24.710;2022-08-14T23:10:52;96127.03;;;16.13;100.00
44001;BME280;29660;42.892;24.710;2022-08-14T23:15:54;96057.13;;;15.57;100.00
44001;BME280;29660;42.892;24.710;2022-08-14T23:20:56;96134.72;;;15.99;100.00
44001;BME280;29660;42.892;24.710;2022-08-14T23:25:58;96081.97;;;15.66;100.00
44001;BME280;29660;42.892;24.710;2022-08-14T23:31:21;96093.59;;;15.70;100.00
44001;BME280;29660;42.892;24.710;2022-08-14T23:36:27;96273.41;;;16.80;100.00
44001;BME280;29660;42.892;24.710;2022-08-14T23:41:33;96290.06;;;16.98;100.00
44001;BME280;29660;42.892;24.710;2022-08-14T23:46:46;96066.28;;;15.56;100.00
44001;BME280;29660;42.892;24.710;2022-08-14T23:51:49;96073.03;;;15.50;100.00
44001;BME280;29660;42.892;24.710;2022-08-14T23:57:00;96140.19;;;16.02;100.00
